Gerald R. Ford International Airport
KGRR : now visible

Airfield :











YOU CAN JOIN US ON...

 
LOGIN :

Register | Disclaimer

   EN    FR    IT 

 









Legend :    VFR   Marginal VFR   IFR   Intensive IFR   Very Intensive IFR
Visi :
Ceiling :
>= 8 km
>= 3000ft
5 to 8 km
1000 to 3000 ft
1500m to 5 km
500 to 1000 ft
800 to 1500m
200 to 500 ft
< 800m
< 200 ft
Symbols :   Thunderstorms  Fog  Heavy snow  Heavy precipitations  Wind > 20 kt






- Airport Elevation : 794 ft
- IATA code : GRR


KGRR - Gerald R. Ford International

CURRENT METAR :
  • 020053Z 06011KT 5SM -RASN BR OVC006 01/00 A2987 RMK AO2 SLP121 P0002 T00110000

EXPIRED METARs :
  • 020038Z 05011KT 4SM -RASN BR OVC006 01/00 A2987 RMK AO2 P0002 T00110000
  • 012353Z 05011KT 2 1/2SM -RASN BR OVC005 01/01 A2986 RMK AO2 DZE51RAB51SNB51 SLP120 P0001 60006 T00110006 10022 20011 53008
  • 012339Z 05009KT 3SM -DZ BR OVC005 01/01 A2986 RMK AO2 P0001 T00110006
  • 012253Z 06010KT 2 1/2SM -DZ BR OVC004 01/01 A2985 RMK AO2 DZE08B30 SLP115 P0000 T00110006
  • 012239Z 05011KT 2 1/2SM -DZ BR OVC005 01/01 A2985 RMK AO2 DZE08B30 P0000 T00110006
  • 012153Z 05008KT 4SM -DZ BR OVC005 02/01 A2985 RMK AO2 RAE51DZB51 SLP113 P0000 T00170006
  • 012133Z 05009KT 1 1/2SM -RA BR OVC004 02/01 A2984 RMK AO2 P0000 T00170011
  • 012124Z 06009KT 1 1/2SM -RA BR OVC005 02/01 A2983 RMK AO2 P0000 T00170011
  • 012053Z 05008KT 6SM -RA BR OVC005 02/01 A2984 RMK AO2 RAB47 SLP111 P0000 60005 T00170011 55007

TAF KGRR
Valid from the 02 at 00:00 until the 03 at 00:00 UTC


012320Z 0200/0224 06007KT 2SM -RA BR OVC004
FM020800 03007KT 2SM -RA BR OVC005
FM021100 03007KT P6SM OVC004
FM021600 05005KT P6SM BKN006
KZAU FIR / North America



MET'MAP, your aeronautical weather chart ! - Copyright ORBIFLY December 2007 - Disclaimer

ORBIFLY MET'MAP TEAM :

Programming & Development : Alexandra Zaïnal
Original concept : Baudouin d'Aumeries
Technical & hardware support : Manuel Goepfert
Assistance : Marc-Olivier Méhu




SOURCES & CREDITS :

   NOAA       Earth
Advisory